Station info - map view · info · telemetry · weather · raw · status · beacons · messages · bulletins · browse · moving · my account
Callsign, ship name or locator: Clear       
It is possible to search using wildcards (*?) after a prefix. Example: OH*
APRS station KE5ETC - show graphs
Map loading...
Comment: Ham Radio Beale AFB Volunteer
Mic-E message: Off duty
Location: 31°23.02' N 89°22.23' W - locator EM51HJ52MB - show map - static map
370.6 yards North bearing 15° from Rawls Springs, Forrest County, Mississippi, United States [?]
3.4 miles North bearing 3° from Arnold Line, Lamar County, Mississippi, United States
69.6 miles North bearing 346° from West Gulfport, Harrison County, Mississippi, United States
79.2 miles Southeast bearing 143° from Jackson, Hinds County, Mississippi, United States
Last position: 2021-08-05 16:58:37 EDT (6h40m ago)
2021-08-05 15:58:37 CDT local time at Rawls Springs, United States [?]
Altitude: 174 ft
Course: 138°
Speed: 61 MPH
Device: Kenwood: TM-D710 (rig)
Last path: KE5ETC>SQRS0R via WIDE1-1,WIDE2-1,qAR,N5AAS-10 (good)
Positions stored: 25064
Packet rate: 348 seconds between packets on average during 17044 seconds.
Other SSIDs: KE5ETC-7
Stations near current position of KE5ETC - show more
callsign distance last heard - EDT      callsign distance last heard - EDT
K5LVL-21.7 miles 140°2021-08-05 23:17:45 K5LVL-101.8 miles 189°2021-08-05 22:42:28
K2NTX B3.6 miles 155°2021-08-05 23:21:40 K2NTX-B3.6 miles 155°2021-08-05 23:21:50
W5CJR-DG4.0 miles 177°2021-08-05 23:34:55 FW18835.6 miles 220°2021-08-05 23:37:40
FW78205.6 miles 228°2021-08-05 23:34:49 AF5NG-95.6 miles 215°2021-08-04 18:20:08
W5CJR5.8 miles 204°2021-08-05 23:10:13 KL4C-76.1 miles 327°2021-07-15 16:51:38
AF5II-76.8 miles 105°2021-08-05 18:19:19 K5LVL-76.8 miles 325°2021-07-20 12:30:36
N5AAS-107.0 miles 176°2021-07-07 22:07:58 146.670-R7.4 miles 203°2021-07-20 12:39:36
KB5VE-107.5 miles 182°2021-08-05 22:45:51 N5LRQ-18.4 miles 344°2021-08-05 19:14:03
443.350-R9.3 miles 286°2021-07-20 12:39:16 K5LVL9.8 miles 195°2021-07-07 23:03:59
AD5TJ-412.3 miles 59°2021-07-21 20:51:32 AF5II-1015.8 miles 148°2021-08-05 23:29:51
Stations which heard KE5ETC directly on radio –
callsign pkts first heard - EDT last heard longest (tx => rx) longest at - EDT
AE5PL-10 1 2021-08-05 09:01:15 2021-08-05 09:01:15 EM13PF > EM13RG 7.9 miles 78° 2021-08-05 09:01:15
W5MRC-15 1 2021-08-05 09:02:48 2021-08-05 09:02:48 EM13QF > EM13RG 6.3 miles 56° 2021-08-05 09:02:48
W5NGU-4 3 2021-08-05 08:58:03 2021-08-05 09:00:50 EM13PF > EM13HL 46.2 miles 291° 2021-08-05 09:00:50
W5MCT-2 3 2021-08-05 10:29:36 2021-08-05 10:34:57 EM22DM > EM22GL 17.5 miles 102° 2021-08-05 10:29:36
W5PFC-1 11 2021-08-05 14:29:03 2021-08-05 15:38:35 EM42LH > EM42TE 36.3 miles 103° 2021-08-05 14:29:03
K5TYR-10 3 2021-08-05 10:45:35 2021-08-05 10:53:35 EM22JK > EM22HG 15.4 miles 210° 2021-08-05 10:53:35
KD5QZD-7 10 2021-08-05 11:41:44 2021-08-05 12:24:28 EM22VL > EM32BK 20.1 miles 97° 2021-08-05 11:41:44
KC5DR-5 5 2021-08-05 13:33:49 2021-08-05 13:43:41 EM32XL > EM32VL 9.8 miles 272° 2021-08-05 13:43:41
K5ROK-1 1 2021-08-05 12:56:29 2021-08-05 12:56:29 EM32LN > EM32MK 8.0 miles 164° 2021-08-05 12:56:29
K5ZRO-1 5 2021-08-05 14:02:24 2021-08-05 14:21:04 EM42EK > EM42OI 45.6 miles 97° 2021-08-05 14:02:24
KQ5T-5 8 2021-08-05 13:04:30 2021-08-05 13:25:50 EM32TM > EM32QM 16.0 miles 272° 2021-08-05 13:25:50
W5KGT-1 1 2021-08-05 13:28:32 2021-08-05 13:28:32 EM32UM > EM32UN 2.5 miles 8° 2021-08-05 13:28:32
KG5JIV-10 1 2021-08-05 09:34:47 2021-08-05 09:34:47 EM12OW > EM12JG 51.6 miles 208° 2021-08-05 09:34:47
KC5AKB 1 2021-08-05 09:28:13 2021-08-05 09:28:13 EM12PW > EM12HH 58.3 miles 221° 2021-08-05 09:28:13
KF5SC 12 2021-08-05 15:12:32 2021-08-05 16:07:26 EM42VG > EM52BF 22.4 miles 100° 2021-08-05 15:12:32
KL7BX-10 3 2021-08-05 11:17:41 2021-08-05 11:25:43 EM22RL > EM22QJ 9.2 miles 220° 2021-08-05 11:25:43
WD5DDH-12 1 2021-08-05 09:49:25 2021-08-05 09:49:25 EM12RS > EM12QH 31.6 miles 184° 2021-08-05 09:49:25
K5CG 5 2021-08-05 09:06:15 2021-08-05 09:20:15 EM13QF > EM13PB 12.5 miles 210° 2021-08-05 09:06:15
KG5JPL-1 2 2021-08-05 09:35:12 2021-08-05 09:38:09 EM12OW > EM12PW 4.6 miles 93° 2021-08-05 09:35:12
KD5KJZ-10 4 2021-08-05 10:13:35 2021-08-05 10:21:35 EM12XP > EM22BM 13.8 miles 133° 2021-08-05 10:13:35
KB5MAR-10 4 2021-08-05 11:31:04 2021-08-05 11:39:04 EM22SL > EM22UN 7.0 miles 56° 2021-08-05 11:31:04
N5AAS-10 2 2021-08-05 16:55:31 2021-08-05 16:58:37 EM51HJ > EM51HG 9.3 miles 165° 2021-08-05 16:55:31
K5GHS-10 1 2021-08-05 09:08:55 2021-08-05 09:08:55 EM13QE > EM13QD 1.8 miles 220° 2021-08-05 09:08:55
W7ZCU 1 2021-08-05 09:23:51 2021-08-05 09:23:51 EM12PX > EM13PA 3.5 miles 37° 2021-08-05 09:23:51

Only position packets which were originated by the station are shown here. The range statistics show some extra long hops, because some digipeaters do not correctly add themselves to the digipeater path. Please check the raw packets.
About this site
This page shows real-time information collected from the Automatic Position Reporting System Internet network (APRS-IS). APRS is used by amateur (ham) radio operators to transmit real-time position information, weather data, telemetry and messages over the radio. A vehicle equipped with a GPS receiver, a VHF transmitter or HF transceiver and a small computer device called a tracker transmits it's location, speed and course in a small data packet, which is then received by a nearby iGate receiving site which forwards the packet on the Internet. Systems connected to the Internet can send information on the APRS-IS without a radio transmitter, or collect and display information transmitted anywhere in the world.
User guide · FAQ · Blog · Discussion group · Linking to aprs.fi · AIS sites · Service status · Database statistics · Advertising on aprs.fi · Technical details · API · Change log · Planned changes · Credits and thanks · Terms Of Service · iPhone/iPad APRS